sensor_id;sensor_type;location;lat;lon;timestamp;temperature;humidity
44063;DHT22;29727;47.606;19.130;2023-02-01T00:02:17;5.90;73.60
44063;DHT22;29727;47.606;19.130;2023-02-01T00:04:42;5.90;74.10
44063;DHT22;29727;47.606;19.130;2023-02-01T00:07:08;6.00;74.40
44063;DHT22;29727;47.606;19.130;2023-02-01T00:09:34;6.00;74.30
44063;DHT22;29727;47.606;19.130;2023-02-01T00:11:59;6.10;74.60
44063;DHT22;29727;47.606;19.130;2023-02-01T00:14:27;6.10;73.90
44063;DHT22;29727;47.606;19.130;2023-02-01T00:16:53;6.20;73.40
44063;DHT22;29727;47.606;19.130;2023-02-01T00:19:19;6.20;73.40
44063;DHT22;29727;47.606;19.130;2023-02-01T00:21:45;6.30;73.40
44063;DHT22;29727;47.606;19.130;2023-02-01T00:24:11;6.30;72.90
44063;DHT22;29727;47.606;19.130;2023-02-01T00:26:38;6.40;73.20
44063;DHT22;29727;47.606;19.130;2023-02-01T00:29:06;6.40;72.50
44063;DHT22;29727;47.606;19.130;2023-02-01T00:31:32;6.50;71.70
44063;DHT22;29727;47.606;19.130;2023-02-01T00:33:58;6.50;71.30
44063;DHT22;29727;47.606;19.130;2023-02-01T00:36:24;6.50;70.90
44063;DHT22;29727;47.606;19.130;2023-02-01T00:38:49;6.50;70.70
44063;DHT22;29727;47.606;19.130;2023-02-01T00:41:20;6.50;71.30
44063;DHT22;29727;47.606;19.130;2023-02-01T00:43:46;6.50;71.20
44063;DHT22;29727;47.606;19.130;2023-02-01T00:46:13;6.50;71.30
44063;DHT22;29727;47.606;19.130;2023-02-01T00:48:39;6.50;70.50
44063;DHT22;29727;47.606;19.130;2023-02-01T00:51:08;6.50;71.00
44063;DHT22;29727;47.606;19.130;2023-02-01T00:53:34;6.50;70.20
44063;DHT22;29727;47.606;19.130;2023-02-01T00:56:00;6.50;70.10
44063;DHT22;29727;47.606;19.130;2023-02-01T00:58:26;6.60;70.30
44063;DHT22;29727;47.606;19.130;2023-02-01T01:03:34;6.60;69.70
44063;DHT22;29727;47.606;19.130;2023-02-01T01:06:01;6.60;69.60
44063;DHT22;29727;47.606;19.130;2023-02-01T01:08:28;6.60;69.80
44063;DHT22;29727;47.606;19.130;2023-02-01T01:10:54;6.60;69.60
44063;DHT22;29727;47.606;19.130;2023-02-01T01:13:20;6.60;69.80
44063;DHT22;29727;47.606;19.130;2023-02-01T01:15:45;6.60;69.80
44063;DHT22;29727;47.606;19.130;2023-02-01T01:18:11;6.70;69.40
44063;DHT22;29727;47.606;19.130;2023-02-01T01:20:39;6.70;68.80
44063;DHT22;29727;47.606;19.130;2023-02-01T01:23:05;6.70;68.90
44063;DHT22;29727;47.606;19.130;2023-02-01T01:25:31;6.80;69.10
44063;DHT22;29727;47.606;19.130;2023-02-01T01:27:57;6.80;69.00
44063;DHT22;29727;47.606;19.130;2023-02-01T01:30:23;6.80;69.10
44063;DHT22;29727;47.606;19.130;2023-02-01T01:32:48;6.80;69.10
44063;DHT22;29727;47.606;19.130;2023-02-01T01:35:14;6.90;69.00
44063;DHT22;29727;47.606;19.130;2023-02-01T01:37:40;6.80;68.90
44063;DHT22;29727;47.606;19.130;2023-02-01T01:40:07;6.80;69.00
44063;DHT22;29727;47.606;19.130;2023-02-01T01:42:41;6.80;69.20
44063;DHT22;29727;47.606;19.130;2023-02-01T01:45:23;6.80;68.60
44063;DHT22;29727;47.606;19.130;2023-02-01T01:47:58;6.80;69.00
44063;DHT22;29727;47.606;19.130;2023-02-01T01:50:35;6.80;69.20
44063;DHT22;29727;47.606;19.130;2023-02-01T01:53:03;6.70;68.90
44063;DHT22;29727;47.606;19.130;2023-02-01T01:55:32;6.70;69.00
44063;DHT22;29727;47.606;19.130;2023-02-01T01:58:03;6.70;69.10
44063;DHT22;29727;47.606;19.130;2023-02-01T02:00:31;6.60;69.20
44063;DHT22;29727;47.606;19.130;2023-02-01T02:03:13;6.60;68.70
44063;DHT22;29727;47.606;19.130;2023-02-01T02:05:40;6.60;69.30
44063;DHT22;29727;47.606;19.130;2023-02-01T02:08:06;6.60;69.50
44063;DHT22;29727;47.606;19.130;2023-02-01T02:10:32;6.60;69.70
44063;DHT22;29727;47.606;19.130;2023-02-01T02:13:17;6.60;69.70
44063;DHT22;29727;47.606;19.130;2023-02-01T02:15:56;6.60;69.50
44063;DHT22;29727;47.606;19.130;2023-02-01T02:18:44;6.60;69.70
44063;DHT22;29727;47.606;19.130;2023-02-01T02:21:15;6.60;69.70
44063;DHT22;29727;47.606;19.130;2023-02-01T02:23:50;6.60;69.20
44063;DHT22;29727;47.606;19.130;2023-02-01T02:40:51;6.70;69.20
44063;DHT22;29727;47.606;19.130;2023-02-01T02:43:08;6.70;69.20
44063;DHT22;29727;47.606;19.130;2023-02-01T02:46:04;6.60;69.20
44063;DHT22;29727;47.606;19.130;2023-02-01T02:49:09;6.60;69.30
44063;DHT22;29727;47.606;19.130;2023-02-01T02:51:48;6.60;69.50
44063;DHT22;29727;47.606;19.130;2023-02-01T02:54:36;6.60;69.00
44063;DHT22;29727;47.606;19.130;2023-02-01T02:57:18;6.60;69.50
44063;DHT22;29727;47.606;19.130;2023-02-01T03:00:08;6.60;69.70
44063;DHT22;29727;47.606;19.130;2023-02-01T03:02:53;6.50;69.90
44063;DHT22;29727;47.606;19.130;2023-02-01T03:05:42;6.50;69.90
44063;DHT22;29727;47.606;19.130;2023-02-01T03:08:18;6.50;69.40
44063;DHT22;29727;47.606;19.130;2023-02-01T03:11:02;6.50;69.90
44063;DHT22;29727;47.606;19.130;2023-02-01T03:13:49;6.60;69.90
44063;DHT22;29727;47.606;19.130;2023-02-01T03:16:31;6.50;70.00
44063;DHT22;29727;47.606;19.130;2023-02-01T03:21:45;6.50;70.00
44063;DHT22;29727;47.606;19.130;2023-02-01T03:24:40;6.50;69.70
44063;DHT22;29727;47.606;19.130;2023-02-01T03:27:34;6.50;70.40
44063;DHT22;29727;47.606;19.130;2023-02-01T03:30:15;6.50;70.30
44063;DHT22;29727;47.606;19.130;2023-02-01T03:32:44;6.50;70.30
44063;DHT22;29727;47.606;19.130;2023-02-01T03:38:38;6.40;70.70
44063;DHT22;29727;47.606;19.130;2023-02-01T03:41:35;6.30;70.90
44063;DHT22;29727;47.606;19.130;2023-02-01T03:46:57;6.30;71.40
44063;DHT22;29727;47.606;19.130;2023-02-01T03:49:29;6.20;71.40
44063;DHT22;29727;47.606;19.130;2023-02-01T03:51:58;6.20;71.50
44063;DHT22;29727;47.606;19.130;2023-02-01T03:54:26;6.20;71.60
44063;DHT22;29727;47.606;19.130;2023-02-01T03:56:55;6.20;71.70
44063;DHT22;29727;47.606;19.130;2023-02-01T03:59:22;6.20;71.40
44063;DHT22;29727;47.606;19.130;2023-02-01T04:01:47;6.30;71.70
44063;DHT22;29727;47.606;19.130;2023-02-01T04:04:13;6.20;71.40
44063;DHT22;29727;47.606;19.130;2023-02-01T04:06:46;6.20;71.50
44063;DHT22;29727;47.606;19.130;2023-02-01T04:09:12;6.20;71.70
44063;DHT22;29727;47.606;19.130;2023-02-01T04:11:38;6.20;71.00
44063;DHT22;29727;47.606;19.130;2023-02-01T04:14:03;6.20;71.50
44063;DHT22;29727;47.606;19.130;2023-02-01T04:16:33;6.10;71.60
44063;DHT22;29727;47.606;19.130;2023-02-01T04:19:00;6.10;71.70
44063;DHT22;29727;47.606;19.130;2023-02-01T04:21:26;6.10;71.60
44063;DHT22;29727;47.606;19.130;2023-02-01T04:23:52;6.10;71.00
44063;DHT22;29727;47.606;19.130;2023-02-01T04:26:18;6.10;71.90
44063;DHT22;29727;47.606;19.130;2023-02-01T04:28:45;6.00;71.60
44063;DHT22;29727;47.606;19.130;2023-02-01T04:31:16;6.00;71.70
44063;DHT22;29727;47.606;19.130;2023-02-01T04:33:43;6.10;71.80
44063;DHT22;29727;47.606;19.130;2023-02-01T04:36:09;6.10;71.60
44063;DHT22;29727;47.606;19.130;2023-02-01T04:38:35;6.00;71.80
44063;DHT22;29727;47.606;19.130;2023-02-01T04:41:00;6.10;71.70
44063;DHT22;29727;47.606;19.130;2023-02-01T04:43:26;6.00;71.60
44063;DHT22;29727;47.606;19.130;2023-02-01T04:45:52;6.00;71.70
44063;DHT22;29727;47.606;19.130;2023-02-01T04:48:19;6.00;71.50
44063;DHT22;29727;47.606;19.130;2023-02-01T04:50:46;6.00;71.70
44063;DHT22;29727;47.606;19.130;2023-02-01T04:53:16;6.00;71.70
44063;DHT22;29727;47.606;19.130;2023-02-01T04:55:43;6.00;71.60
44063;DHT22;29727;47.606;19.130;2023-02-01T04:58:09;6.00;71.70
44063;DHT22;29727;47.606;19.130;2023-02-01T05:00:36;6.00;71.40
44063;DHT22;29727;47.606;19.130;2023-02-01T05:03:01;6.00;71.20
44063;DHT22;29727;47.606;19.130;2023-02-01T05:05:28;6.00;71.20
44063;DHT22;29727;47.606;19.130;2023-02-01T05:07:54;6.10;71.30
44063;DHT22;29727;47.606;19.130;2023-02-01T05:10:20;6.10;71.20
44063;DHT22;29727;47.606;19.130;2023-02-01T05:12:46;6.10;70.60
44063;DHT22;29727;47.606;19.130;2023-02-01T05:15:30;6.20;70.20
44063;DHT22;29727;47.606;19.130;2023-02-01T05:17:57;6.20;70.80
44063;DHT22;29727;47.606;19.130;2023-02-01T05:20:23;6.20;70.30
44063;DHT22;29727;47.606;19.130;2023-02-01T05:22:49;6.20;69.40
44063;DHT22;29727;47.606;19.130;2023-02-01T05:25:14;6.20;69.50
44063;DHT22;29727;47.606;19.130;2023-02-01T05:27:40;6.30;69.10
44063;DHT22;29727;47.606;19.130;2023-02-01T05:30:07;6.30;68.80
44063;DHT22;29727;47.606;19.130;2023-02-01T05:32:33;6.30;68.90
44063;DHT22;29727;47.606;19.130;2023-02-01T05:34:59;6.30;68.60
44063;DHT22;29727;47.606;19.130;2023-02-01T05:37:24;6.30;68.70
44063;DHT22;29727;47.606;19.130;2023-02-01T05:39:50;6.40;68.70
44063;DHT22;29727;47.606;19.130;2023-02-01T05:42:16;6.40;68.40
44063;DHT22;29727;47.606;19.130;2023-02-01T05:44:42;6.40;68.50
44063;DHT22;29727;47.606;19.130;2023-02-01T05:47:07;6.50;68.50
44063;DHT22;29727;47.606;19.130;2023-02-01T05:49:33;6.50;68.30
44063;DHT22;29727;47.606;19.130;2023-02-01T05:51:59;6.50;68.40
44063;DHT22;29727;47.606;19.130;2023-02-01T05:54:24;6.60;68.40
44063;DHT22;29727;47.606;19.130;2023-02-01T05:56:50;6.60;68.10
44063;DHT22;29727;47.606;19.130;2023-02-01T05:59:16;6.70;68.00
44063;DHT22;29727;47.606;19.130;2023-02-01T06:01:41;6.60;68.10
44063;DHT22;29727;47.606;19.130;2023-02-01T06:04:07;6.60;68.40
44063;DHT22;29727;47.606;19.130;2023-02-01T06:06:33;6.60;68.40
44063;DHT22;29727;47.606;19.130;2023-02-01T06:09:00;6.60;68.60
44063;DHT22;29727;47.606;19.130;2023-02-01T06:11:26;6.60;68.60
44063;DHT22;29727;47.606;19.130;2023-02-01T06:13:51;6.60;68.40
44063;DHT22;29727;47.606;19.130;2023-02-01T06:16:17;6.70;68.50
44063;DHT22;29727;47.606;19.130;2023-02-01T06:18:43;6.70;68.50
44063;DHT22;29727;47.606;19.130;2023-02-01T06:21:08;6.60;68.50
44063;DHT22;29727;47.606;19.130;2023-02-01T06:23:34;6.70;68.70
44063;DHT22;29727;47.606;19.130;2023-02-01T06:26:06;6.70;68.70
44063;DHT22;29727;47.606;19.130;2023-02-01T06:28:35;6.70;68.60
44063;DHT22;29727;47.606;19.130;2023-02-01T06:31:07;6.70;68.60
44063;DHT22;29727;47.606;19.130;2023-02-01T06:33:33;6.70;68.60
44063;DHT22;29727;47.606;19.130;2023-02-01T06:36:01;6.70;68.60
44063;DHT22;29727;47.606;19.130;2023-02-01T06:38:27;6.70;69.00
44063;DHT22;29727;47.606;19.130;2023-02-01T06:40:54;6.70;69.00
44063;DHT22;29727;47.606;19.130;2023-02-01T06:43:21;6.60;69.10
44063;DHT22;29727;47.606;19.130;2023-02-01T06:45:47;6.60;68.90
44063;DHT22;29727;47.606;19.130;2023-02-01T06:48:12;6.60;69.20
44063;DHT22;29727;47.606;19.130;2023-02-01T06:50:38;6.60;69.50
44063;DHT22;29727;47.606;19.130;2023-02-01T06:53:04;6.60;69.60
44063;DHT22;29727;47.606;19.130;2023-02-01T06:55:29;6.50;69.80
44063;DHT22;29727;47.606;19.130;2023-02-01T06:57:55;6.50;70.10
44063;DHT22;29727;47.606;19.130;2023-02-01T07:00:24;6.40;70.40
44063;DHT22;29727;47.606;19.130;2023-02-01T07:02:50;6.40;70.70
44063;DHT22;29727;47.606;19.130;2023-02-01T07:05:16;6.40;71.00
44063;DHT22;29727;47.606;19.130;2023-02-01T07:07:42;6.30;70.90
44063;DHT22;29727;47.606;19.130;2023-02-01T07:10:09;6.30;71.00
44063;DHT22;29727;47.606;19.130;2023-02-01T07:12:35;6.30;71.00
44063;DHT22;29727;47.606;19.130;2023-02-01T07:15:01;6.30;70.90
44063;DHT22;29727;47.606;19.130;2023-02-01T07:17:28;6.40;70.90
44063;DHT22;29727;47.606;19.130;2023-02-01T07:19:55;6.40;70.80
44063;DHT22;29727;47.606;19.130;2023-02-01T07:22:21;6.50;70.20
44063;DHT22;29727;47.606;19.130;2023-02-01T07:24:47;6.50;70.60
44063;DHT22;29727;47.606;19.130;2023-02-01T07:27:13;6.50;70.60
44063;DHT22;29727;47.606;19.130;2023-02-01T07:29:38;6.60;70.60
44063;DHT22;29727;47.606;19.130;2023-02-01T07:32:04;6.70;70.40
44063;DHT22;29727;47.606;19.130;2023-02-01T07:34:30;6.70;69.70
44063;DHT22;29727;47.606;19.130;2023-02-01T07:36:59;6.80;69.70
44063;DHT22;29727;47.606;19.130;2023-02-01T07:39:25;6.80;69.80
44063;DHT22;29727;47.606;19.130;2023-02-01T07:41:53;6.80;70.00
44063;DHT22;29727;47.606;19.130;2023-02-01T07:44:19;6.80;69.90
44063;DHT22;29727;47.606;19.130;2023-02-01T07:46:48;6.80;69.50
44063;DHT22;29727;47.606;19.130;2023-02-01T07:49:14;6.90;69.70
44063;DHT22;29727;47.606;19.130;2023-02-01T07:51:40;6.90;69.40
44063;DHT22;29727;47.606;19.130;2023-02-01T07:54:05;6.90;69.40
44063;DHT22;29727;47.606;19.130;2023-02-01T07:56:31;7.00;69.40
44063;DHT22;29727;47.606;19.130;2023-02-01T07:58:57;7.00;69.40
44063;DHT22;29727;47.606;19.130;2023-02-01T08:01:26;7.00;69.20
44063;DHT22;29727;47.606;19.130;2023-02-01T08:03:57;7.00;69.20
44063;DHT22;29727;47.606;19.130;2023-02-01T08:06:28;7.00;68.60
44063;DHT22;29727;47.606;19.130;2023-02-01T08:08:55;7.00;68.40
44063;DHT22;29727;47.606;19.130;2023-02-01T08:11:21;6.90;68.90
44063;DHT22;29727;47.606;19.130;2023-02-01T08:13:47;7.00;68.60
44063;DHT22;29727;47.606;19.130;2023-02-01T08:16:15;7.00;68.60
44063;DHT22;29727;47.606;19.130;2023-02-01T08:18:41;7.00;68.90
44063;DHT22;29727;47.606;19.130;2023-02-01T08:21:11;7.00;68.20
44063;DHT22;29727;47.606;19.130;2023-02-01T08:23:38;7.00;66.60
44063;DHT22;29727;47.606;19.130;2023-02-01T08:26:10;7.00;68.00
44063;DHT22;29727;47.606;19.130;2023-02-01T08:28:38;7.10;66.80
44063;DHT22;29727;47.606;19.130;2023-02-01T08:31:08;7.10;67.40
44063;DHT22;29727;47.606;19.130;2023-02-01T08:33:35;7.10;67.20
44063;DHT22;29727;47.606;19.130;2023-02-01T08:36:04;7.20;67.00
44063;DHT22;29727;47.606;19.130;2023-02-01T08:38:30;7.30;66.60
44063;DHT22;29727;47.606;19.130;2023-02-01T08:40:56;7.30;65.80
44063;DHT22;29727;47.606;19.130;2023-02-01T08:43:22;7.40;66.10
44063;DHT22;29727;47.606;19.130;2023-02-01T08:45:49;7.40;66.10
44063;DHT22;29727;47.606;19.130;2023-02-01T08:48:14;7.40;66.20
44063;DHT22;29727;47.606;19.130;2023-02-01T08:50:40;7.50;66.60
44063;DHT22;29727;47.606;19.130;2023-02-01T08:53:06;7.60;66.40
44063;DHT22;29727;47.606;19.130;2023-02-01T08:55:31;7.70;65.70
44063;DHT22;29727;47.606;19.130;2023-02-01T08:57:57;7.70;65.30
44063;DHT22;29727;47.606;19.130;2023-02-01T09:00:23;7.80;65.90
44063;DHT22;29727;47.606;19.130;2023-02-01T09:02:49;7.80;65.10
44063;DHT22;29727;47.606;19.130;2023-02-01T09:05:14;7.90;64.70
44063;DHT22;29727;47.606;19.130;2023-02-01T09:07:42;7.90;65.10
44063;DHT22;29727;47.606;19.130;2023-02-01T09:10:08;7.90;64.60
44063;DHT22;29727;47.606;19.130;2023-02-01T09:12:35;7.90;64.70
44063;DHT22;29727;47.606;19.130;2023-02-01T09:15:01;7.90;64.70
44063;DHT22;29727;47.606;19.130;2023-02-01T09:17:28;7.90;65.00
44063;DHT22;29727;47.606;19.130;2023-02-01T09:19:53;7.90;64.80
44063;DHT22;29727;47.606;19.130;2023-02-01T09:22:19;8.10;64.10
44063;DHT22;29727;47.606;19.130;2023-02-01T09:24:45;8.10;63.50
44063;DHT22;29727;47.606;19.130;2023-02-01T09:27:11;8.20;63.00
44063;DHT22;29727;47.606;19.130;2023-02-01T09:29:36;8.20;63.10
44063;DHT22;29727;47.606;19.130;2023-02-01T09:32:02;8.20;63.20
44063;DHT22;29727;47.606;19.130;2023-02-01T09:34:28;8.20;64.20
44063;DHT22;29727;47.606;19.130;2023-02-01T09:36:54;8.20;64.10
44063;DHT22;29727;47.606;19.130;2023-02-01T09:39:19;8.30;64.10
44063;DHT22;29727;47.606;19.130;2023-02-01T09:42:29;8.20;64.40
44063;DHT22;29727;47.606;19.130;2023-02-01T09:47:17;8.20;65.20
44063;DHT22;29727;47.606;19.130;2023-02-01T09:50:13;8.20;66.80
44063;DHT22;29727;47.606;19.130;2023-02-01T09:53:00;8.20;65.50
44063;DHT22;29727;47.606;19.130;2023-02-01T09:55:38;8.20;66.00
44063;DHT22;29727;47.606;19.130;2023-02-01T09:58:47;8.20;64.70
44063;DHT22;29727;47.606;19.130;2023-02-01T10:00:56;8.20;65.30
44063;DHT22;29727;47.606;19.130;2023-02-01T10:03:29;8.10;66.50
44063;DHT22;29727;47.606;19.130;2023-02-01T10:08:48;8.10;66.50
44063;DHT22;29727;47.606;19.130;2023-02-01T10:22:03;8.20;66.70
44063;DHT22;29727;47.606;19.130;2023-02-01T10:27:22;8.30;66.40
44063;DHT22;29727;47.606;19.130;2023-02-01T10:30:01;8.30;66.10
44063;DHT22;29727;47.606;19.130;2023-02-01T10:32:34;8.20;66.70
44063;DHT22;29727;47.606;19.130;2023-02-01T10:37:37;8.10;67.30
44063;DHT22;29727;47.606;19.130;2023-02-01T10:40:28;8.20;67.50
44063;DHT22;29727;47.606;19.130;2023-02-01T10:43:01;8.20;67.10
44063;DHT22;29727;47.606;19.130;2023-02-01T10:45:30;8.20;67.10
44063;DHT22;29727;47.606;19.130;2023-02-01T10:47:57;8.20;67.50
44063;DHT22;29727;47.606;19.130;2023-02-01T10:53:13;8.30;66.90
44063;DHT22;29727;47.606;19.130;2023-02-01T10:58:19;8.30;67.20
44063;DHT22;29727;47.606;19.130;2023-02-01T11:01:06;8.30;67.20
44063;DHT22;29727;47.606;19.130;2023-02-01T11:03:34;8.30;67.20
44063;DHT22;29727;47.606;19.130;2023-02-01T11:06:01;8.20;66.60
44063;DHT22;29727;47.606;19.130;2023-02-01T11:08:28;8.20;67.10
44063;DHT22;29727;47.606;19.130;2023-02-01T11:11:03;8.30;67.70
44063;DHT22;29727;47.606;19.130;2023-02-01T11:13:33;8.40;67.20
44063;DHT22;29727;47.606;19.130;2023-02-01T11:16:04;8.40;66.40
44063;DHT22;29727;47.606;19.130;2023-02-01T11:18:35;8.40;66.60
44063;DHT22;29727;47.606;19.130;2023-02-01T11:21:01;8.40;67.10
44063;DHT22;29727;47.606;19.130;2023-02-01T11:23:29;8.40;67.60
44063;DHT22;29727;47.606;19.130;2023-02-01T11:26:01;8.40;68.00
44063;DHT22;29727;47.606;19.130;2023-02-01T11:28:30;8.60;68.50
44063;DHT22;29727;47.606;19.130;2023-02-01T11:31:00;8.60;68.50
44063;DHT22;29727;47.606;19.130;2023-02-01T11:33:30;8.70;68.20
44063;DHT22;29727;47.606;19.130;2023-02-01T11:36:01;8.80;68.10
44063;DHT22;29727;47.606;19.130;2023-02-01T11:38:32;8.80;67.90
44063;DHT22;29727;47.606;19.130;2023-02-01T11:41:20;8.90;68.60
44063;DHT22;29727;47.606;19.130;2023-02-01T11:43:56;8.90;68.80
44063;DHT22;29727;47.606;19.130;2023-02-01T11:46:32;8.80;69.70
44063;DHT22;29727;47.606;19.130;2023-02-01T11:49:25;8.80;70.20
44063;DHT22;29727;47.606;19.130;2023-02-01T11:52:28;8.70;71.60
44063;DHT22;29727;47.606;19.130;2023-02-01T11:55:16;8.60;71.70
44063;DHT22;29727;47.606;19.130;2023-02-01T12:09:03;8.50;75.80
44063;DHT22;29727;47.606;19.130;2023-02-01T12:11:48;8.50;76.20
44063;DHT22;29727;47.606;19.130;2023-02-01T12:14:38;8.40;75.60
44063;DHT22;29727;47.606;19.130;2023-02-01T12:20:21;8.30;75.30
44063;DHT22;29727;47.606;19.130;2023-02-01T12:30:58;8.10;77.50
44063;DHT22;29727;47.606;19.130;2023-02-01T12:33:29;8.00;77.10
44063;DHT22;29727;47.606;19.130;2023-02-01T12:36:24;8.00;76.80
44063;DHT22;29727;47.606;19.130;2023-02-01T12:44:00;7.70;78.90
44063;DHT22;29727;47.606;19.130;2023-02-01T12:46:45;7.60;79.50
44063;DHT22;29727;47.606;19.130;2023-02-01T12:49:21;7.50;79.50
44063;DHT22;29727;47.606;19.130;2023-02-01T12:51:54;7.40;79.30
44063;DHT22;29727;47.606;19.130;2023-02-01T12:54:47;7.40;79.60
44063;DHT22;29727;47.606;19.130;2023-02-01T12:57:26;7.20;80.20
44063;DHT22;29727;47.606;19.130;2023-02-01T13:00:35;7.20;80.80
44063;DHT22;29727;47.606;19.130;2023-02-01T13:02:56;7.20;80.80
44063;DHT22;29727;47.606;19.130;2023-02-01T13:05:31;7.20;81.20
44063;DHT22;29727;47.606;19.130;2023-02-01T13:08:12;7.10;81.00
44063;DHT22;29727;47.606;19.130;2023-02-01T13:10:46;7.20;81.70
44063;DHT22;29727;47.606;19.130;2023-02-01T13:16:36;7.30;82.20
44063;DHT22;29727;47.606;19.130;2023-02-01T13:21:46;7.50;80.90
44063;DHT22;29727;47.606;19.130;2023-02-01T13:24:36;7.60;81.90
44063;DHT22;29727;47.606;19.130;2023-02-01T13:27:03;7.70;82.90
44063;DHT22;29727;47.606;19.130;2023-02-01T13:29:30;7.80;82.70
44063;DHT22;29727;47.606;19.130;2023-02-01T13:37:48;8.30;80.20
44063;DHT22;29727;47.606;19.130;2023-02-01T13:42:53;8.30;79.20
44063;DHT22;29727;47.606;19.130;2023-02-01T13:45:23;8.30;79.70
44063;DHT22;29727;47.606;19.130;2023-02-01T13:47:53;8.20;79.50
44063;DHT22;29727;47.606;19.130;2023-02-01T13:50:27;8.20;79.90
44063;DHT22;29727;47.606;19.130;2023-02-01T13:53:11;8.20;79.40
44063;DHT22;29727;47.606;19.130;2023-02-01T13:55:44;8.20;78.60
44063;DHT22;29727;47.606;19.130;2023-02-01T14:00:46;8.10;78.60
44063;DHT22;29727;47.606;19.130;2023-02-01T14:13:27;7.90;76.60
44063;DHT22;29727;47.606;19.130;2023-02-01T14:24:17;7.40;77.40
44063;DHT22;29727;47.606;19.130;2023-02-01T14:26:48;7.30;78.00
44063;DHT22;29727;47.606;19.130;2023-02-01T14:31:54;7.10;80.10
44063;DHT22;29727;47.606;19.130;2023-02-01T14:37:01;7.10;80.40
44063;DHT22;29727;47.606;19.130;2023-02-01T14:42:38;7.20;79.80
44063;DHT22;29727;47.606;19.130;2023-02-01T14:47:44;7.20;80.10
44063;DHT22;29727;47.606;19.130;2023-02-01T14:58:03;7.40;79.80
44063;DHT22;29727;47.606;19.130;2023-02-01T15:00:31;7.30;79.50
44063;DHT22;29727;47.606;19.130;2023-02-01T15:03:19;7.40;80.20
44063;DHT22;29727;47.606;19.130;2023-02-01T15:05:55;7.40;80.30
44063;DHT22;29727;47.606;19.130;2023-02-01T15:08:28;7.40;79.60
44063;DHT22;29727;47.606;19.130;2023-02-01T15:10:56;7.40;79.70
44063;DHT22;29727;47.606;19.130;2023-02-01T15:13:28;7.40;79.20
44063;DHT22;29727;47.606;19.130;2023-02-01T15:16:14;7.40;79.30
44063;DHT22;29727;47.606;19.130;2023-02-01T15:18:41;7.40;79.40
44063;DHT22;29727;47.606;19.130;2023-02-01T15:21:19;7.40;79.20
44063;DHT22;29727;47.606;19.130;2023-02-01T15:23:45;7.40;78.80
44063;DHT22;29727;47.606;19.130;2023-02-01T15:26:34;7.40;79.30
44063;DHT22;29727;47.606;19.130;2023-02-01T15:28:59;7.30;79.50
44063;DHT22;29727;47.606;19.130;2023-02-01T15:31:37;7.30;80.20
44063;DHT22;29727;47.606;19.130;2023-02-01T15:34:04;7.20;81.00
44063;DHT22;29727;47.606;19.130;2023-02-01T15:36:30;7.30;81.40
44063;DHT22;29727;47.606;19.130;2023-02-01T15:41:49;7.30;81.00
44063;DHT22;29727;47.606;19.130;2023-02-01T15:44:34;7.30;80.90
44063;DHT22;29727;47.606;19.130;2023-02-01T15:47:17;7.30;80.60
44063;DHT22;29727;47.606;19.130;2023-02-01T15:49:46;7.40;80.80
44063;DHT22;29727;47.606;19.130;2023-02-01T15:52:35;7.40;80.80
44063;DHT22;29727;47.606;19.130;2023-02-01T15:55:04;7.40;78.80
44063;DHT22;29727;47.606;19.130;2023-02-01T15:57:38;7.40;79.30
44063;DHT22;29727;47.606;19.130;2023-02-01T16:00:23;7.40;79.50
44063;DHT22;29727;47.606;19.130;2023-02-01T16:03:02;7.40;79.20
44063;DHT22;29727;47.606;19.130;2023-02-01T16:05:42;7.50;79.20
44063;DHT22;29727;47.606;19.130;2023-02-01T16:08:16;7.50;77.50
44063;DHT22;29727;47.606;19.130;2023-02-01T16:10:45;7.50;77.90
44063;DHT22;29727;47.606;19.130;2023-02-01T16:13:13;7.50;77.90
44063;DHT22;29727;47.606;19.130;2023-02-01T16:15:39;7.50;77.70
44063;DHT22;29727;47.606;19.130;2023-02-01T16:18:06;7.50;77.40
44063;DHT22;29727;47.606;19.130;2023-02-01T16:20:34;7.40;76.90
44063;DHT22;29727;47.606;19.130;2023-02-01T16:23:01;7.40;77.40
44063;DHT22;29727;47.606;19.130;2023-02-01T16:25:27;7.30;77.10
44063;DHT22;29727;47.606;19.130;2023-02-01T16:27:53;7.20;77.70
44063;DHT22;29727;47.606;19.130;2023-02-01T16:30:19;7.10;78.20
44063;DHT22;29727;47.606;19.130;2023-02-01T16:32:49;7.10;78.40
44063;DHT22;29727;47.606;19.130;2023-02-01T16:37:48;7.20;78.10
44063;DHT22;29727;47.606;19.130;2023-02-01T16:40:16;7.20;77.00
44063;DHT22;29727;47.606;19.130;2023-02-01T16:42:42;7.20;77.20
44063;DHT22;29727;47.606;19.130;2023-02-01T16:45:08;7.30;76.90
44063;DHT22;29727;47.606;19.130;2023-02-01T16:47:36;7.30;77.30
44063;DHT22;29727;47.606;19.130;2023-02-01T16:50:03;7.20;77.00
44063;DHT22;29727;47.606;19.130;2023-02-01T16:52:29;7.20;77.20
44063;DHT22;29727;47.606;19.130;2023-02-01T16:54:54;7.10;77.80
44063;DHT22;29727;47.606;19.130;2023-02-01T16:57:20;7.00;78.10
44063;DHT22;29727;47.606;19.130;2023-02-01T16:59:49;7.00;79.00
44063;DHT22;29727;47.606;19.130;2023-02-01T17:02:18;6.90;79.10
44063;DHT22;29727;47.606;19.130;2023-02-01T17:04:49;6.90;79.00
44063;DHT22;29727;47.606;19.130;2023-02-01T17:07:18;6.90;79.00
44063;DHT22;29727;47.606;19.130;2023-02-01T17:09:45;6.90;79.10
44063;DHT22;29727;47.606;19.130;2023-02-01T17:12:26;7.00;79.10
44063;DHT22;29727;47.606;19.130;2023-02-01T17:14:52;7.00;79.30
44063;DHT22;29727;47.606;19.130;2023-02-01T17:17:19;7.00;79.00
44063;DHT22;29727;47.606;19.130;2023-02-01T17:19:48;7.00;78.40
44063;DHT22;29727;47.606;19.130;2023-02-01T17:22:17;7.00;78.40
44063;DHT22;29727;47.606;19.130;2023-02-01T17:24:43;7.00;79.20
44063;DHT22;29727;47.606;19.130;2023-02-01T17:27:09;7.10;79.20
44063;DHT22;29727;47.606;19.130;2023-02-01T17:29:35;7.10;78.70
44063;DHT22;29727;47.606;19.130;2023-02-01T17:32:02;7.20;78.10
44063;DHT22;29727;47.606;19.130;2023-02-01T17:34:28;7.20;77.70
44063;DHT22;29727;47.606;19.130;2023-02-01T17:36:54;7.30;77.10
44063;DHT22;29727;47.606;19.130;2023-02-01T17:39:20;7.30;76.90
44063;DHT22;29727;47.606;19.130;2023-02-01T17:42:07;7.30;76.20
44063;DHT22;29727;47.606;19.130;2023-02-01T17:44:34;7.30;76.60
44063;DHT22;29727;47.606;19.130;2023-02-01T17:47:00;7.30;75.80
44063;DHT22;29727;47.606;19.130;2023-02-01T17:49:26;7.30;76.40
44063;DHT22;29727;47.606;19.130;2023-02-01T17:51:56;7.30;76.30
44063;DHT22;29727;47.606;19.130;2023-02-01T17:54:22;7.30;75.80
44063;DHT22;29727;47.606;19.130;2023-02-01T17:56:48;7.40;75.90
44063;DHT22;29727;47.606;19.130;2023-02-01T17:59:14;7.40;76.30
44063;DHT22;29727;47.606;19.130;2023-02-01T18:01:40;7.40;75.90
44063;DHT22;29727;47.606;19.130;2023-02-01T18:04:11;7.40;75.40
44063;DHT22;29727;47.606;19.130;2023-02-01T18:06:37;7.30;73.70
44063;DHT22;29727;47.606;19.130;2023-02-01T18:09:03;7.30;74.20
44063;DHT22;29727;47.606;19.130;2023-02-01T18:11:29;7.20;73.70